AIRPORT MAP

 RUNWAY INFORMATION

Runway 17 Runway length 11417 ft Runway width 148 ft
Runway elevation 151 ft Runway displaced threshold 984 ft Runway heading 169
Runway 35 Runway length 11417 ft Runway width 148 ft
Runway elevation 226 ft Runway displaced threshold 492 ft Runway heading 349

 AIRPORT FREQUENCIES

Type APP Name APP Frequency 121.1 MHZ
Type ATIS Name ATIS Frequency 124.3 MHZ
Type TWR Name TWR Frequency 118 MHZ

 AIRPORT NEAR NAVIGATION AIDS

Type NDB Name Porto Frequency 367 KHZ
Type NDB Name Porto Frequency 327 KHZ
Type VOR-DME Name Porto Frequency 114100 KHZ

 METAR AND TAF INFORMATION

METAR FOR LPPR
ADDS - METARS form results

(0937 UTC 27 May 2020)
Data provider http://aviationweather.gov/metar/data/
 
METAR text: LPPR 270930Z 12012KT CAVOK 28/16 Q1020
Conditions at: LPPR (PORTO/PEDRAS RUB, PT) observed 0930 UTC 27 May 2020
Temperature: 28.0°C (82°F)
Dewpoint: 16.0°C (61°F) [RH = 48%]
Pressure (altimeter): 30.12 inches Hg (1020.0 mb)
Winds: from the ESE (120 degrees) at 14 MPH (12 knots; 6.2 m/s)
Visibility: 6 or more miles (10+ km)
Ceiling: ceiling and visibility are OK
Clouds: unknown
Weather: no significant weather observed at this time

METAR text: LPPR 270900Z 10011KT CAVOK 27/16 Q1020
Conditions at: LPPR (PORTO/PEDRAS RUB, PT) observed 0900 UTC 27 May 2020
Temperature: 27.0°C (81°F)
Dewpoint: 16.0°C (61°F) [RH = 51%]
Pressure (altimeter): 30.12 inches Hg (1020.0 mb)
Winds: from the E (100 degrees) at 13 MPH (11 knots; 5.7 m/s)
Visibility: 6 or more miles (10+ km)
Ceiling: ceiling and visibility are OK
Clouds: unknown
Weather: no significant weather observed at this time

Forecast for: LPPR (PORTO/PEDRAS RUB, PT)
Text: TAF LPPR 270500Z 2706/2806 10012KT CAVOK
Forecast period: 0600 to 1300 UTC 27 May 2020
Forecast type: FROM: standard forecast or significant change
Winds: from the E (100 degrees) at 14 MPH (12 knots; 6.2 m/s)
Visibility: 6 or more miles 10+ km)
Ceiling: unknown
Clouds: missing
Weather: NSW  (no significant weather)
Text: BECMG 2713/2715 32010KT
Forecast period: 1300 to 2200 UTC 27 May 2020
Forecast type: BECOMING: Conditions expected to become as follows by 1500 UTC 27 May 2020
Winds: from the NW (320 degrees) at 12 MPH (10 knots; 5.1 m/s)
Visibility: 6 or more miles 10+ km)
Ceiling: unknown
Clouds: missing
Weather: NSW  (no significant weather)
Text: BECMG 2722/2724 07008KT
Forecast period: 2200 UTC 27 May 2020 to 0600 UTC 28 May 2020
Forecast type: BECOMING: Conditions expected to become as follows by 0000 UTC 28 May 2020
Winds: from the ENE (70 degrees) at 9 MPH (8 knots; 4.1 m/s)
Visibility: 6 or more miles 10+ km)
Ceiling: unknown
Clouds: missing
Weather: NSW  (no significant weather)